createdAt,value
2018-09-05T00:00:55.650Z,25.45
2018-09-05T00:03:30.129Z,25.87
2018-09-05T00:05:57.896Z,25.55
2018-09-05T00:08:32.237Z,26.47
2018-09-05T00:10:59.924Z,25.30
2018-09-05T00:13:27.613Z,26.75
2018-09-05T00:15:55.698Z,25.83
2018-09-05T00:18:23.408Z,23.60
2018-09-05T00:20:51.105Z,25.03
2018-09-05T00:23:18.859Z,26.30
2018-09-05T00:25:46.538Z,24.43
2018-09-05T00:28:14.261Z,23.37
2018-09-05T00:30:41.907Z,20.97
2018-09-05T00:33:16.223Z,25.90
2018-09-05T00:35:44.035Z,26.63
2018-09-05T00:38:18.760Z,26.00
2018-09-05T00:40:46.474Z,26.30
2018-09-05T00:43:14.219Z,27.50
2018-09-05T00:45:41.918Z,25.50
2018-09-05T00:48:09.611Z,26.87
2018-09-05T00:50:37.305Z,24.50
2018-09-05T00:53:05.045Z,28.50
2018-09-05T00:55:32.724Z,28.27
2018-09-05T00:58:00.464Z,24.83
2018-09-05T01:00:35.208Z,23.77
2018-09-05T01:03:09.683Z,27.77
2018-09-05T01:05:37.499Z,28.37
2018-09-05T01:08:11.558Z,29.37
2018-09-05T01:10:39.269Z,28.40
2018-09-05T01:13:06.949Z,29.57
2018-09-05T01:15:34.596Z,25.97
2018-09-05T01:18:08.187Z,26.30
2018-09-05T01:20:36.045Z,28.40
2018-09-05T01:23:10.356Z,29.47
2018-09-05T01:25:44.889Z,29.50
2018-09-05T01:28:19.653Z,30.83
2018-09-05T01:30:54.147Z,28.73
2018-09-05T01:33:21.813Z,27.93
2018-09-05T01:35:54.022Z,30.17
2018-09-05T01:38:21.745Z,29.33
2018-09-05T01:40:49.773Z,28.27
2018-09-05T01:43:24.084Z,31.57
2018-09-05T01:45:51.832Z,29.63
2018-09-05T01:48:26.364Z,29.90
2018-09-05T01:50:54.428Z,27.50
2018-09-05T01:53:22.083Z,30.60
2018-09-05T01:55:49.805Z,33.80
2018-09-05T01:58:24.252Z,33.03
2018-09-05T02:00:52.000Z,32.70
2018-09-05T02:03:19.754Z,32.57
2018-09-05T02:05:54.005Z,35.20
2018-09-05T02:08:28.509Z,31.83
2018-09-05T02:10:56.133Z,34.20
2018-09-05T02:13:23.900Z,36.17
2018-09-05T02:15:51.553Z,35.83
2018-09-05T02:18:19.400Z,33.27
2018-09-05T02:20:54.120Z,35.83
2018-09-05T02:23:22.343Z,35.03
2018-09-05T02:25:50.554Z,37.17
2018-09-05T02:28:24.584Z,41.07
2018-09-05T02:30:52.235Z,35.73
2018-09-05T02:33:19.996Z,40.67
2018-09-05T02:35:54.135Z,39.13
2018-09-05T02:38:21.826Z,40.53
2018-09-05T02:40:49.571Z,40.07
2018-09-05T02:43:29.310Z,39.03
2018-09-05T02:46:03.388Z,41.70
2018-09-05T02:48:31.254Z,39.30
2018-09-05T02:50:59.158Z,39.27
2018-09-05T02:53:26.920Z,35.13
2018-09-05T02:56:00.507Z,39.87
2018-09-05T02:58:28.265Z,33.43
2018-09-05T03:00:55.981Z,41.57
2018-09-05T03:03:23.631Z,39.37
2018-09-05T03:05:58.225Z,38.63
2018-09-05T03:08:32.338Z,33.23
2018-09-05T03:11:06.829Z,36.90
2018-09-05T03:13:34.585Z,37.77
2018-09-05T03:16:02.576Z,39.03
2018-09-05T03:18:36.895Z,41.73
2018-09-05T03:21:04.961Z,34.80
2018-09-05T03:23:32.737Z,36.60
2018-09-05T03:26:07.474Z,39.73
2018-09-05T03:28:41.928Z,44.07
2018-09-05T03:31:16.394Z,40.20
2018-09-05T03:33:50.787Z,39.63
2018-09-05T03:36:25.418Z,39.43
2018-09-05T03:38:59.855Z,39.80
2018-09-05T03:41:34.293Z,38.97
2018-09-05T03:44:08.967Z,38.00
2018-09-05T03:46:43.456Z,40.53
2018-09-05T03:49:11.147Z,38.50
2018-09-05T03:51:38.954Z,39.77
2018-09-05T03:54:06.865Z,34.93
2018-09-05T03:56:41.292Z,39.73
2018-09-05T03:59:15.760Z,38.00
2018-09-05T04:01:50.264Z,35.63
2018-09-05T04:04:24.861Z,36.43
2018-09-05T04:06:59.336Z,37.93
2018-09-05T04:09:33.851Z,35.73
2018-09-05T04:12:08.431Z,37.60
2018-09-05T04:14:42.929Z,39.83
2018-09-05T04:17:10.503Z,36.40
2018-09-05T04:19:38.196Z,36.73
2018-09-05T04:22:12.726Z,37.53
2018-09-05T04:24:47.239Z,39.87
2018-09-05T04:27:21.706Z,41.00
2018-09-05T04:29:56.297Z,41.13
2018-09-05T04:32:30.811Z,38.57
2018-09-05T04:35:04.748Z,39.17
2018-09-05T04:37:39.076Z,40.10
2018-09-05T04:40:13.751Z,33.97
2018-09-05T04:42:48.181Z,38.87
2018-09-05T04:45:22.764Z,36.40
2018-09-05T04:47:57.267Z,34.07
2018-09-05T04:50:31.740Z,37.03
2018-09-05T04:54:03.484Z,36.67
2018-09-05T04:56:31.241Z,36.07
2018-09-05T04:58:58.862Z,37.30
2018-09-05T05:01:26.551Z,37.43
2018-09-05T05:03:54.224Z,36.70
2018-09-05T05:06:21.880Z,33.43
2018-09-05T05:08:49.573Z,35.80
2018-09-05T05:11:17.262Z,31.17
2018-09-05T05:13:45.110Z,34.77
2018-09-05T05:16:12.752Z,35.17
2018-09-05T05:18:40.393Z,33.17
2018-09-05T05:21:08.178Z,35.50
2018-09-05T05:23:35.845Z,35.63
2018-09-05T05:26:03.495Z,33.33
2018-09-05T05:28:31.017Z,36.07
2018-09-05T05:30:58.803Z,35.53
2018-09-05T05:33:26.343Z,32.83
2018-09-05T05:35:54.072Z,28.87
2018-09-05T05:38:21.701Z,31.43
2018-09-05T05:40:49.649Z,30.63
2018-09-05T05:43:17.369Z,33.57
2018-09-05T05:45:45.056Z,34.43
2018-09-05T05:48:12.598Z,33.67
2018-09-05T05:50:40.425Z,29.27
2018-09-05T05:53:08.092Z,29.33
2018-09-05T05:55:35.915Z,29.57
2018-09-05T05:58:03.891Z,31.93
2018-09-05T06:00:31.411Z,30.30
2018-09-05T06:02:59.071Z,33.78
2018-09-05T06:05:26.699Z,34.33
2018-09-05T06:07:54.286Z,34.75
2018-09-05T06:10:25.881Z,33.33
2018-09-05T06:12:54.791Z,31.70
2018-09-05T06:15:22.623Z,30.55
2018-09-05T06:17:50.321Z,34.20
2018-09-05T06:20:17.884Z,32.83
2018-09-05T06:22:45.604Z,34.35
2018-09-05T06:25:13.244Z,33.90
2018-09-05T06:27:41.040Z,32.35
2018-09-05T06:30:08.701Z,33.33
2018-09-05T06:32:36.452Z,34.55
2018-09-05T06:35:04.223Z,35.83
2018-09-05T06:37:31.971Z,35.52
2018-09-05T06:39:59.599Z,32.60
2018-09-05T06:42:27.280Z,32.78
2018-09-05T06:44:54.948Z,35.48
2018-09-05T06:47:22.572Z,23.80
2018-09-05T06:49:50.276Z,33.42
2018-09-05T06:52:17.952Z,33.35
2018-09-05T06:54:45.720Z,28.98
2018-09-05T06:57:13.488Z,31.27
2018-09-05T06:59:41.144Z,30.05
2018-09-05T07:02:08.819Z,32.90
2018-09-05T07:04:36.569Z,30.52
2018-09-05T07:07:04.337Z,32.88
2018-09-05T07:09:31.921Z,34.63
2018-09-05T07:12:00.215Z,32.25
2018-09-05T07:14:27.845Z,31.80
2018-09-05T07:16:55.541Z,32.45
2018-09-05T07:19:23.331Z,32.55
2018-09-05T07:21:51.063Z,32.73
2018-09-05T07:24:18.732Z,30.97
2018-09-05T07:26:46.378Z,28.35
2018-09-05T07:29:15.502Z,31.05
2018-09-05T07:31:43.228Z,29.15
2018-09-05T07:34:10.996Z,29.12
2018-09-05T07:36:38.640Z,26.23
2018-09-05T07:39:08.072Z,26.05
2018-09-05T07:41:35.809Z,23.70
2018-09-05T07:44:03.837Z,26.77
2018-09-05T07:46:31.507Z,25.40
2018-09-05T07:48:59.204Z,24.02
2018-09-05T07:51:26.847Z,26.55
2018-09-05T07:53:54.784Z,23.15
2018-09-05T07:56:22.428Z,24.47
2018-09-05T07:58:50.037Z,23.42
2018-09-05T08:01:17.706Z,23.92
2018-09-05T08:03:45.417Z,23.70
2018-09-05T08:06:13.080Z,20.68
2018-09-05T08:08:40.598Z,21.95
2018-09-05T08:11:08.408Z,23.12
2018-09-05T08:13:36.171Z,22.90
2018-09-05T08:16:03.904Z,24.80
2018-09-05T08:18:31.576Z,25.32
2018-09-05T08:20:59.324Z,23.18
2018-09-05T08:23:27.086Z,23.55
2018-09-05T08:25:54.691Z,23.15
2018-09-05T08:28:22.468Z,25.05
2018-09-05T08:30:50.268Z,24.05
2018-09-05T08:33:18.274Z,21.48
2018-09-05T08:35:46.262Z,17.57
2018-09-05T08:38:13.924Z,23.38
2018-09-05T08:40:41.686Z,19.42
2018-09-05T08:43:09.444Z,24.92
2018-09-05T08:45:37.418Z,16.82
2018-09-05T08:48:05.051Z,21.05
2018-09-05T08:50:32.720Z,18.10
2018-09-05T08:53:00.602Z,19.15
2018-09-05T08:55:28.477Z,20.62
2018-09-05T08:57:56.117Z,22.07
2018-09-05T09:00:23.814Z,18.60
2018-09-05T09:02:51.495Z,19.60
2018-09-05T09:05:19.233Z,21.48
2018-09-05T09:07:47.020Z,20.12
2018-09-05T09:10:14.656Z,18.40
2018-09-05T09:12:42.366Z,20.55
2018-09-05T09:15:10.567Z,18.45
2018-09-05T09:17:38.210Z,18.73
2018-09-05T09:20:06.013Z,17.67
2018-09-05T09:22:33.735Z,19.42
2018-09-05T09:25:01.602Z,19.73
2018-09-05T09:27:30.505Z,19.42
2018-09-05T09:29:58.237Z,21.02
2018-09-05T09:32:25.981Z,19.87
2018-09-05T09:34:53.659Z,19.05
2018-09-05T09:37:21.451Z,19.10
2018-09-05T09:39:49.612Z,17.85
2018-09-05T09:42:17.903Z,16.77
2018-09-05T09:44:45.544Z,19.17
2018-09-05T09:47:13.218Z,22.75
2018-09-05T09:49:40.839Z,20.37
2018-09-05T09:52:14.201Z,21.25
2018-09-05T09:54:41.875Z,20.45
2018-09-05T09:57:09.492Z,21.82
2018-09-05T09:59:37.200Z,21.90
2018-09-05T10:02:10.549Z,21.87
2018-09-05T10:05:41.112Z,20.65
2018-09-05T10:08:10.922Z,22.35
2018-09-05T10:10:44.237Z,22.27
2018-09-05T10:13:17.219Z,23.50
2018-09-05T10:15:50.476Z,22.65
2018-09-05T10:18:23.741Z,23.00
2018-09-05T10:20:51.489Z,25.27
2018-09-05T10:23:19.262Z,25.52
2018-09-05T10:25:46.964Z,23.22
2018-09-05T10:28:14.615Z,24.43
2018-09-05T10:30:42.271Z,24.30
2018-09-05T10:33:09.900Z,24.20
2018-09-05T10:35:37.559Z,22.27
2018-09-05T10:38:05.212Z,21.97
2018-09-05T10:40:32.880Z,21.23
2018-09-05T10:43:00.694Z,24.40
2018-09-05T10:45:28.562Z,20.45
2018-09-05T10:47:56.203Z,19.82
2018-09-05T10:50:23.929Z,23.25
2018-09-05T10:52:51.649Z,22.45
2018-09-05T10:55:19.300Z,20.00
2018-09-05T10:57:47.005Z,19.12
2018-09-05T11:00:14.742Z,19.67
2018-09-05T11:02:42.417Z,22.10
2018-09-05T11:05:10.062Z,21.75
2018-09-05T11:07:37.724Z,18.20
2018-09-05T11:10:05.406Z,19.75
2018-09-05T11:12:33.085Z,18.75
2018-09-05T11:15:00.719Z,18.50
2018-09-05T11:17:28.353Z,18.48
2018-09-05T11:19:55.996Z,17.48
2018-09-05T11:22:23.673Z,19.55
2018-09-05T11:24:51.380Z,17.27
2018-09-05T11:27:19.005Z,19.62
2018-09-05T11:29:46.727Z,18.20
2018-09-05T11:32:14.234Z,17.27
2018-09-05T11:34:41.815Z,16.37
2018-09-05T11:37:09.475Z,19.15
2018-09-05T11:39:37.164Z,18.75
2018-09-05T11:42:04.806Z,18.27
2018-09-05T11:44:32.681Z,17.37
2018-09-05T11:47:00.375Z,18.57
2018-09-05T11:49:28.674Z,16.45
2018-09-05T11:51:56.989Z,17.00
2018-09-05T11:54:24.689Z,15.23
2018-09-05T11:56:52.460Z,16.77
2018-09-05T11:59:20.166Z,19.25
2018-09-05T12:01:47.870Z,16.87
2018-09-05T12:04:15.532Z,15.70
2018-09-05T12:06:43.262Z,14.68
2018-09-05T12:09:11.851Z,15.70
2018-09-05T12:11:39.682Z,14.40
2018-09-05T12:14:08.092Z,14.13
2018-09-05T12:16:36.333Z,15.18
2018-09-05T12:19:04.752Z,14.10
2018-09-05T12:21:32.377Z,14.90
2018-09-05T12:24:00.045Z,13.65
2018-09-05T12:26:27.735Z,14.30
2018-09-05T12:28:55.444Z,14.13
2018-09-05T12:31:23.113Z,13.75
2018-09-05T12:33:50.772Z,14.45
2018-09-05T12:36:19.572Z,13.98
2018-09-05T12:38:47.258Z,12.95
2018-09-05T12:41:14.886Z,14.20
2018-09-05T12:43:42.644Z,13.65
2018-09-05T12:46:10.267Z,13.25
2018-09-05T12:48:38.490Z,13.75
2018-09-05T12:51:06.180Z,13.38
2018-09-05T12:53:34.020Z,14.05
2018-09-05T12:56:01.700Z,13.58
2018-09-05T12:58:29.388Z,12.88
2018-09-05T13:00:57.141Z,14.35
2018-09-05T13:03:24.770Z,14.45
2018-09-05T13:05:52.472Z,13.65
2018-09-05T13:08:20.192Z,13.83
2018-09-05T13:10:47.884Z,14.07
2018-09-05T13:13:15.911Z,13.35
2018-09-05T13:15:43.716Z,14.50
2018-09-05T13:18:11.410Z,14.75
2018-09-05T13:20:39.076Z,15.30
2018-09-05T13:23:06.635Z,14.83
2018-09-05T13:25:34.403Z,14.87
2018-09-05T13:28:02.044Z,15.20
2018-09-05T13:30:29.714Z,14.47
2018-09-05T13:32:57.407Z,14.83
2018-09-05T13:35:25.181Z,14.55
2018-09-05T13:37:52.831Z,15.40
2018-09-05T13:40:20.835Z,14.33
2018-09-05T13:42:48.487Z,15.53
2018-09-05T13:45:16.335Z,14.38
2018-09-05T13:47:44.060Z,14.68
2018-09-05T13:50:11.815Z,13.08
2018-09-05T13:52:39.483Z,16.87
2018-09-05T13:55:07.485Z,16.35
2018-09-05T13:57:35.208Z,13.38
2018-09-05T14:00:03.077Z,14.70
2018-09-05T14:02:30.769Z,12.80
2018-09-05T14:04:58.441Z,15.08
2018-09-05T14:07:26.516Z,12.25
2018-09-05T14:09:54.207Z,14.53
2018-09-05T14:12:21.849Z,15.32
2018-09-05T14:14:49.495Z,14.55
2018-09-05T14:17:17.217Z,13.35
2018-09-05T14:19:44.932Z,14.83
2018-09-05T14:22:12.701Z,15.58
2018-09-05T14:24:40.473Z,14.93
2018-09-05T14:27:08.143Z,15.78
2018-09-05T14:29:35.820Z,17.48
2018-09-05T14:32:03.479Z,15.05
2018-09-05T14:34:31.153Z,16.70
2018-09-05T14:36:58.785Z,16.60
2018-09-05T14:39:26.421Z,16.73
2018-09-05T14:41:54.087Z,16.17
2018-09-05T14:44:21.720Z,15.05
2018-09-05T14:46:49.357Z,17.00
2018-09-05T14:49:17.028Z,15.98
2018-09-05T14:51:44.689Z,15.78
2018-09-05T14:54:12.412Z,14.28
2018-09-05T14:56:40.149Z,16.32
2018-09-05T14:59:07.808Z,14.07
2018-09-05T15:01:35.480Z,14.10
2018-09-05T15:04:03.236Z,14.13
2018-09-05T15:06:30.980Z,16.40
2018-09-05T15:08:58.470Z,14.45
2018-09-05T15:11:26.108Z,14.15
2018-09-05T15:13:53.681Z,13.28
2018-09-05T15:16:21.216Z,15.13
2018-09-05T15:18:48.781Z,14.33
2018-09-05T15:21:16.453Z,15.15
2018-09-05T15:23:45.097Z,13.15
2018-09-05T15:26:12.800Z,14.05
2018-09-05T15:28:40.416Z,14.28
2018-09-05T15:31:08.064Z,13.50
2018-09-05T15:33:35.737Z,14.35
2018-09-05T15:36:03.452Z,16.85
2018-09-05T15:38:31.173Z,17.00
2018-09-05T15:40:59.115Z,16.17
2018-09-05T15:43:26.645Z,16.77
2018-09-05T15:45:54.339Z,16.90
2018-09-05T15:48:22.071Z,15.10
2018-09-05T15:50:49.696Z,16.12
2018-09-05T15:53:17.420Z,13.95
2018-09-05T15:55:45.177Z,15.30
2018-09-05T15:58:12.913Z,13.60
2018-09-05T16:00:40.599Z,15.58
2018-09-05T16:03:08.217Z,14.65
2018-09-05T16:05:35.856Z,12.50
2018-09-05T16:08:03.451Z,13.60
2018-09-05T16:10:31.137Z,12.60
2018-09-05T16:12:58.858Z,14.05
2018-09-05T16:15:26.592Z,13.70
2018-09-05T16:17:54.115Z,13.88
2018-09-05T16:20:21.792Z,13.55
2018-09-05T16:22:49.465Z,12.50
2018-09-05T16:25:17.052Z,13.10
2018-09-05T16:27:44.739Z,13.10
2018-09-05T16:30:12.537Z,11.63
2018-09-05T16:32:40.273Z,10.72
2018-09-05T16:35:08.045Z,13.43
2018-09-05T16:37:35.717Z,11.73
2018-09-05T16:40:03.831Z,12.33
2018-09-05T16:42:31.468Z,11.35
2018-09-05T16:45:00.235Z,13.03
2018-09-05T16:47:28.562Z,11.70
2018-09-05T16:49:56.644Z,12.13
2018-09-05T16:52:28.334Z,11.03
2018-09-05T16:54:57.003Z,10.93
2018-09-05T16:57:25.011Z,12.30
2018-09-05T16:59:53.242Z,11.43
2018-09-05T17:02:21.627Z,12.15
2018-09-05T17:04:49.972Z,13.00
2018-09-05T17:07:18.449Z,11.22
2018-09-05T17:09:46.723Z,12.78
2018-09-05T17:12:14.428Z,11.20
2018-09-05T17:14:42.133Z,12.68
2018-09-05T17:17:10.018Z,12.65
2018-09-05T17:19:37.772Z,13.75
2018-09-05T17:22:05.517Z,12.00
2018-09-05T17:24:33.257Z,11.18
2018-09-05T17:27:00.894Z,12.05
2018-09-05T17:29:28.594Z,12.78
2018-09-05T17:31:56.251Z,11.65
2018-09-05T17:34:23.995Z,11.50
2018-09-05T17:36:51.591Z,11.45
2018-09-05T17:39:20.378Z,12.20
2018-09-05T17:41:48.124Z,11.10
2018-09-05T17:44:15.777Z,11.18
2018-09-05T17:46:43.408Z,12.80
2018-09-05T17:49:10.950Z,11.12
2018-09-05T17:51:38.612Z,11.15
2018-09-05T17:54:06.371Z,11.40
2018-09-05T17:56:34.049Z,11.10
2018-09-05T17:59:02.472Z,9.45
2018-09-05T18:01:30.398Z,12.68
2018-09-05T18:03:58.045Z,10.48
2018-09-05T18:06:25.817Z,11.43
2018-09-05T18:08:53.534Z,11.83
2018-09-05T18:11:21.253Z,11.00
2018-09-05T18:13:48.817Z,10.98
2018-09-05T18:16:16.505Z,9.25
2018-09-05T18:18:44.157Z,10.90
2018-09-05T18:21:11.934Z,12.03
2018-09-05T18:23:39.510Z,10.00
2018-09-05T18:26:07.501Z,9.85
2018-09-05T18:28:35.359Z,10.18
2018-09-05T18:31:03.325Z,8.95
2018-09-05T18:33:30.940Z,9.30
2018-09-05T18:35:58.704Z,8.88
2018-09-05T18:38:26.364Z,9.93
2018-09-05T18:40:54.044Z,10.35
2018-09-05T18:43:21.957Z,8.18
2018-09-05T18:45:49.711Z,10.80
2018-09-05T18:48:17.380Z,10.58
2018-09-05T18:50:45.500Z,8.93
2018-09-05T18:53:13.621Z,8.80
2018-09-05T18:55:42.864Z,8.20
2018-09-05T18:58:10.647Z,8.13
2018-09-05T19:00:38.671Z,8.10
2018-09-05T19:03:07.295Z,7.90
2018-09-05T19:05:35.237Z,8.40
2018-09-05T19:08:02.865Z,8.70
2018-09-05T19:10:30.529Z,9.38
2018-09-05T19:12:58.208Z,10.05
2018-09-05T19:15:26.180Z,8.83
2018-09-05T19:17:53.880Z,8.35
2018-09-05T19:20:21.695Z,7.40
2018-09-05T19:22:49.458Z,8.38
2018-09-05T19:25:17.148Z,9.63
2018-09-05T19:27:44.823Z,8.45
2018-09-05T19:30:12.565Z,9.25
2018-09-05T19:32:40.253Z,6.90
2018-09-05T19:35:07.936Z,10.55
2018-09-05T19:37:36.505Z,7.60
2018-09-05T19:40:04.412Z,7.97
2018-09-05T19:42:32.158Z,6.60
2018-09-05T19:44:59.807Z,9.18
2018-09-05T19:47:27.568Z,9.53
2018-09-05T19:49:55.239Z,8.05
2018-09-05T19:52:22.898Z,7.25
2018-09-05T19:54:50.429Z,7.95
2018-09-05T19:57:18.082Z,10.38
2018-09-05T19:59:45.880Z,10.78
2018-09-05T20:02:13.569Z,10.98
2018-09-05T20:04:41.486Z,8.85
2018-09-05T20:07:09.371Z,7.20
2018-09-05T20:09:37.049Z,8.58
2018-09-05T20:12:04.718Z,9.08
2018-09-05T20:14:32.837Z,7.62
2018-09-05T20:17:00.497Z,10.60
2018-09-05T20:19:28.118Z,8.10
2018-09-05T20:21:55.782Z,7.20
2018-09-05T20:24:23.442Z,9.60
2018-09-05T20:26:51.019Z,8.20
2018-09-05T20:29:18.896Z,6.12
2018-09-05T20:31:46.495Z,9.30
2018-09-05T20:34:14.381Z,7.30
2018-09-05T20:36:42.080Z,9.33
2018-09-05T20:39:11.013Z,8.93
2018-09-05T20:41:38.669Z,8.13
2018-09-05T20:44:06.304Z,8.05
2018-09-05T20:46:33.908Z,8.35
2018-09-05T20:49:01.548Z,7.83
2018-09-05T20:51:29.272Z,8.58
2018-09-05T20:53:56.898Z,7.85
2018-09-05T20:56:24.627Z,6.83
2018-09-05T20:58:52.284Z,7.62
2018-09-05T21:01:20.001Z,10.78
2018-09-05T21:03:47.776Z,7.42
2018-09-05T21:06:15.441Z,8.08
2018-09-05T21:08:43.107Z,9.28
2018-09-05T21:11:10.671Z,7.55
2018-09-05T21:13:38.367Z,8.33
2018-09-05T21:16:06.233Z,6.97
2018-09-05T21:18:33.932Z,11.00
2018-09-05T21:21:01.514Z,9.90
2018-09-05T21:23:30.779Z,9.18
2018-09-05T21:25:58.528Z,9.33
2018-09-05T21:28:26.103Z,7.55
2018-09-05T21:30:54.084Z,7.78
2018-09-05T21:33:21.762Z,7.58
2018-09-05T21:35:49.376Z,8.43
2018-09-05T21:38:17.052Z,10.88
2018-09-05T21:40:44.714Z,8.68
2018-09-05T21:43:12.366Z,8.38
2018-09-05T21:45:40.045Z,8.43
2018-09-05T21:48:07.757Z,8.53
2018-09-05T21:50:35.381Z,10.30
2018-09-05T21:53:03.514Z,9.50
2018-09-05T21:55:31.181Z,9.35
2018-09-05T21:57:58.820Z,9.50
2018-09-05T22:00:26.524Z,7.53
2018-09-05T22:02:54.479Z,8.33
2018-09-05T22:05:22.039Z,10.28
2018-09-05T22:07:49.680Z,9.60
2018-09-05T22:10:17.353Z,8.45
2018-09-05T22:12:44.980Z,9.08
2018-09-05T22:15:12.842Z,7.53
2018-09-05T22:17:40.509Z,7.45
2018-09-05T22:20:08.493Z,7.28
2018-09-05T22:22:36.127Z,8.25
2018-09-05T22:25:03.875Z,6.00
2018-09-05T22:27:31.413Z,7.78
2018-09-05T22:29:59.100Z,8.10
2018-09-05T22:32:26.793Z,7.83
2018-09-05T22:34:54.458Z,10.58
2018-09-05T22:37:22.863Z,7.47
2018-09-05T22:39:50.630Z,7.85
2018-09-05T22:42:18.269Z,7.22
2018-09-05T22:44:57.527Z,7.72
2018-09-05T22:47:36.599Z,6.08
2018-09-05T22:50:32.184Z,5.95
2018-09-05T22:55:23.798Z,8.23
2018-09-05T23:00:00.362Z,10.72
2018-09-05T23:04:47.189Z,9.45
2018-09-05T23:07:26.246Z,11.45
2018-09-05T23:10:05.158Z,8.73
2018-09-05T23:12:38.242Z,8.83
2018-09-05T23:15:17.258Z,11.10
2018-09-05T23:22:01.093Z,10.45
2018-09-05T23:24:28.756Z,11.73
2018-09-05T23:26:56.378Z,12.15
2018-09-05T23:29:24.053Z,11.25
2018-09-05T23:31:51.676Z,9.95
2018-09-05T23:34:19.324Z,10.48
2018-09-05T23:36:46.991Z,9.38
2018-09-05T23:39:14.678Z,10.38
2018-09-05T23:41:42.305Z,9.03
2018-09-05T23:44:09.958Z,9.15
2018-09-05T23:46:37.644Z,13.18
2018-09-05T23:49:05.466Z,11.22
2018-09-05T23:51:33.117Z,12.73
2018-09-05T23:54:00.673Z,6.45
2018-09-05T23:56:28.426Z,8.73
2018-09-05T23:58:56.137Z,9.15
